createdAt,value
2019-06-26T00:01:31.965Z,70.98
2019-06-26T00:04:02.203Z,71.31
2019-06-26T00:06:32.243Z,71.35
2019-06-26T00:09:02.514Z,71.48
2019-06-26T00:11:34.352Z,71.48
2019-06-26T00:14:04.416Z,71.72
2019-06-26T00:16:34.572Z,71.67
2019-06-26T00:19:04.687Z,71.85
2019-06-26T00:33:15.696Z,71.93
2019-06-26T00:35:45.619Z,72.00
2019-06-26T00:38:15.845Z,71.93
2019-06-26T00:40:45.807Z,71.78
2019-06-26T00:43:17.708Z,71.84
2019-06-26T00:45:47.520Z,71.93
2019-06-26T00:48:56.486Z,71.83
2019-06-26T00:51:26.413Z,71.88
2019-06-26T00:53:56.137Z,72.19
2019-06-26T00:57:05.030Z,71.90
2019-06-26T01:02:48.104Z,71.91
2019-06-26T01:05:18.536Z,71.70
2019-06-26T01:10:45.140Z,71.89
2019-06-26T01:13:16.197Z,71.61
2019-06-26T01:15:46.362Z,71.51
2019-06-26T01:18:15.735Z,71.79
2019-06-26T01:20:45.702Z,72.12
2019-06-26T01:23:16.468Z,71.92
2019-06-26T01:26:25.218Z,72.22
2019-06-26T01:28:55.112Z,71.79
2019-06-26T01:31:25.259Z,71.94
2019-06-26T01:33:55.618Z,71.67
2019-06-26T01:36:25.615Z,71.77
2019-06-26T01:38:55.526Z,71.96
2019-06-26T01:41:24.889Z,71.83
2019-06-26T01:43:56.273Z,71.97
2019-06-26T01:46:25.961Z,71.81
2019-06-26T01:48:55.365Z,71.71
2019-06-26T01:51:25.120Z,71.97
2019-06-26T01:53:54.727Z,72.05
2019-06-26T01:56:25.129Z,71.75
2019-06-26T01:58:54.476Z,71.85
2019-06-26T02:04:20.258Z,72.07
2019-06-26T02:06:51.250Z,71.94
2019-06-26T02:09:21.780Z,72.29
2019-06-26T02:11:51.911Z,72.06
2019-06-26T02:14:31.152Z,71.96
2019-06-26T02:16:53.640Z,71.92
2019-06-26T02:19:23.779Z,71.77
2019-06-26T02:21:53.592Z,71.83
2019-06-26T02:25:02.757Z,71.86
2019-06-26T02:27:34.530Z,71.76
2019-06-26T02:30:04.280Z,71.72
2019-06-26T02:32:35.046Z,71.73
2019-06-26T02:38:20.267Z,71.87
2019-06-26T02:40:50.850Z,71.89
2019-06-26T02:43:21.229Z,71.77
2019-06-26T02:45:51.763Z,71.81
2019-06-26T02:48:21.341Z,71.79
2019-06-26T02:51:30.161Z,71.69
2019-06-26T02:54:00.710Z,71.68
2019-06-26T02:56:33.036Z,71.91
2019-06-26T03:01:58.208Z,71.76
2019-06-26T03:04:28.227Z,71.79
2019-06-26T03:06:57.590Z,71.80
2019-06-26T03:09:27.894Z,71.92
2019-06-26T03:11:58.413Z,71.67
2019-06-26T03:14:27.900Z,71.70
2019-06-26T03:16:57.398Z,71.44
2019-06-26T03:19:26.902Z,71.40
2019-06-26T03:22:35.567Z,71.58
2019-06-26T03:28:17.801Z,71.16
2019-06-26T03:30:47.476Z,71.64
2019-06-26T03:33:18.208Z,71.07
2019-06-26T03:35:48.327Z,71.01
2019-06-26T03:38:18.207Z,71.03
2019-06-26T03:40:48.108Z,71.00
2019-06-26T03:43:56.772Z,70.68
2019-06-26T03:49:36.878Z,70.26
2019-06-26T03:54:57.835Z,70.01
2019-06-26T04:03:40.854Z,70.19
2019-06-26T04:06:10.649Z,69.68
2019-06-26T04:08:40.069Z,69.38
2019-06-26T04:11:49.129Z,68.63
2019-06-26T04:14:18.917Z,68.39
2019-06-26T04:17:27.619Z,68.00
2019-06-26T04:19:57.372Z,67.88
2019-06-26T04:22:27.754Z,67.45
2019-06-26T04:24:58.521Z,67.02
2019-06-26T04:30:29.574Z,66.41
2019-06-26T04:32:59.402Z,66.12
2019-06-26T04:38:25.144Z,65.69
2019-06-26T04:41:34.447Z,65.69
2019-06-26T04:47:01.426Z,65.73
2019-06-26T04:52:41.743Z,64.40
2019-06-26T04:58:26.177Z,62.87
2019-06-26T05:00:55.665Z,62.75
2019-06-26T05:03:26.284Z,62.20
2019-06-26T05:05:55.798Z,61.75
2019-06-26T05:08:25.611Z,61.00
2019-06-26T05:11:34.644Z,60.97
2019-06-26T05:17:05.680Z,60.02
2019-06-26T05:19:35.903Z,58.88
2019-06-26T05:22:27.719Z,59.09
2019-06-26T05:24:57.111Z,58.49
2019-06-26T05:27:26.715Z,58.58
2019-06-26T05:30:36.900Z,58.04
2019-06-26T05:33:06.556Z,57.90
2019-06-26T05:35:36.527Z,56.59
2019-06-26T05:38:45.225Z,56.35
2019-06-26T05:44:23.840Z,55.45
2019-06-26T05:46:53.653Z,53.78
2019-06-26T05:49:23.223Z,54.04
2019-06-26T05:51:53.022Z,54.99
2019-06-26T05:54:23.347Z,53.38
2019-06-26T05:56:52.702Z,53.01
2019-06-26T06:00:01.546Z,52.19
2019-06-26T06:02:32.435Z,51.33
2019-06-26T06:05:01.792Z,52.13
2019-06-26T06:10:27.678Z,50.73
2019-06-26T06:12:57.284Z,49.78
2019-06-26T06:15:27.415Z,50.29
2019-06-26T06:17:57.643Z,48.86
2019-06-26T06:21:08.568Z,49.73
2019-06-26T06:23:37.940Z,49.54
2019-06-26T06:26:08.186Z,48.33
2019-06-26T06:29:17.029Z,49.38
2019-06-26T06:31:48.790Z,49.19
2019-06-26T06:37:14.569Z,48.09
2019-06-26T06:39:43.941Z,47.47
2019-06-26T06:42:13.478Z,46.94
2019-06-26T06:44:43.153Z,46.45
2019-06-26T06:47:13.165Z,45.90
2019-06-26T06:52:56.552Z,44.49
2019-06-26T06:55:26.381Z,44.96
2019-06-26T06:58:15.155Z,45.21
2019-06-26T07:00:44.536Z,44.66
2019-06-26T07:03:13.903Z,44.04
2019-06-26T07:05:43.818Z,42.78
2019-06-26T07:11:28.976Z,41.44
2019-06-26T07:13:58.571Z,42.09
2019-06-26T07:16:27.952Z,42.24
2019-06-26T07:19:16.610Z,41.50
2019-06-26T07:21:58.018Z,40.57
2019-06-26T07:24:27.489Z,40.39
2019-06-26T07:26:56.850Z,39.29
2019-06-26T07:30:06.281Z,39.08
2019-06-26T07:32:36.018Z,39.85
2019-06-26T07:35:45.256Z,39.58
2019-06-26T07:38:14.783Z,40.46
2019-06-26T07:40:44.909Z,36.34
2019-06-26T07:43:16.560Z,37.08
2019-06-26T07:45:45.943Z,36.54
2019-06-26T07:48:15.511Z,38.53
2019-06-26T07:50:44.900Z,38.62
2019-06-26T07:53:14.268Z,38.73
2019-06-26T07:55:43.705Z,37.96
2019-06-26T07:58:13.155Z,37.94
2019-06-26T08:00:42.958Z,36.75
2019-06-26T08:03:12.366Z,36.97
2019-06-26T08:05:43.211Z,35.84
2019-06-26T08:08:14.834Z,36.83
2019-06-26T08:11:06.197Z,37.92
2019-06-26T08:13:34.201Z,37.91
2019-06-26T08:16:03.622Z,37.99
2019-06-26T08:18:33.372Z,39.47
2019-06-26T08:21:12.179Z,39.57
2019-06-26T08:23:35.824Z,39.55
2019-06-26T08:26:05.208Z,41.21
2019-06-26T08:28:34.699Z,41.57
2019-06-26T08:31:04.209Z,41.05
2019-06-26T08:33:33.855Z,39.58
2019-06-26T08:36:03.293Z,40.45
2019-06-26T08:38:32.721Z,41.53
2019-06-26T08:43:36.854Z,36.76
2019-06-26T08:46:06.220Z,40.33
2019-06-26T08:48:39.952Z,41.60
2019-06-26T08:51:06.763Z,42.54
2019-06-26T08:53:36.110Z,41.60
2019-06-26T08:56:06.293Z,42.42
2019-06-26T08:58:35.842Z,40.98
2019-06-26T09:01:05.193Z,43.95
2019-06-26T09:03:34.634Z,45.95
2019-06-26T09:06:04.339Z,47.00
2019-06-26T09:08:33.809Z,48.15
2019-06-26T09:11:03.444Z,46.66
2019-06-26T09:13:33.334Z,38.77
2019-06-26T09:19:17.938Z,43.73
2019-06-26T09:21:48.707Z,40.45
2019-06-26T09:24:18.178Z,44.50
2019-06-26T09:26:49.022Z,45.10
2019-06-26T09:29:23.617Z,47.02
2019-06-26T09:31:51.152Z,47.32
2019-06-26T09:34:21.539Z,47.15
2019-06-26T09:36:51.353Z,48.51
2019-06-26T09:42:10.009Z,49.52
2019-06-26T09:44:39.680Z,50.33
2019-06-26T09:47:09.442Z,49.80
2019-06-26T09:49:40.414Z,49.91
2019-06-26T09:55:25.071Z,49.35
2019-06-26T10:01:03.061Z,49.11
2019-06-26T10:06:48.595Z,49.74
2019-06-26T10:09:57.678Z,49.23
2019-06-26T10:13:07.082Z,47.86
2019-06-26T10:19:08.673Z,46.42
2019-06-26T10:21:23.748Z,46.32
2019-06-26T10:23:53.640Z,44.15
2019-06-26T10:27:02.582Z,43.55
2019-06-26T10:29:32.594Z,43.96
2019-06-26T10:32:02.408Z,43.51
2019-06-26T10:34:34.972Z,42.26
2019-06-26T10:37:04.725Z,41.93
2019-06-26T10:39:34.839Z,40.85
2019-06-26T10:45:00.321Z,39.58
2019-06-26T10:47:32.278Z,38.31
2019-06-26T10:52:58.197Z,38.35
2019-06-26T10:56:07.314Z,37.31
2019-06-26T10:58:38.577Z,37.25
2019-06-26T11:03:59.187Z,38.58
2019-06-26T11:06:28.632Z,39.15
2019-06-26T11:08:57.960Z,40.21
2019-06-26T11:11:27.403Z,42.68
2019-06-26T11:13:56.822Z,44.16
2019-06-26T11:16:27.114Z,45.13
2019-06-26T11:18:56.533Z,45.06
2019-06-26T11:24:36.177Z,44.58
2019-06-26T11:27:06.681Z,43.33
2019-06-26T11:29:36.622Z,42.28
2019-06-26T11:32:09.449Z,41.93
2019-06-26T11:34:38.683Z,40.66
2019-06-26T11:37:08.632Z,41.78
2019-06-26T11:39:38.037Z,41.61
2019-06-26T11:42:07.364Z,42.61
2019-06-26T11:44:37.088Z,42.72
2019-06-26T11:47:06.664Z,43.10
2019-06-26T11:49:36.171Z,44.63
2019-06-26T11:52:05.659Z,45.41
2019-06-26T11:54:35.509Z,45.82
2019-06-26T11:57:05.329Z,45.71
2019-06-26T11:59:34.815Z,45.79
2019-06-26T12:02:43.499Z,45.21
2019-06-26T12:11:29.728Z,42.22
2019-06-26T12:13:59.521Z,41.98
2019-06-26T12:17:08.249Z,40.61
2019-06-26T12:19:38.052Z,40.27
2019-06-26T12:22:07.432Z,39.97
2019-06-26T12:25:16.293Z,40.26
2019-06-26T12:27:46.110Z,39.05
2019-06-26T12:30:54.851Z,40.45
2019-06-26T12:33:24.265Z,40.82
2019-06-26T12:36:33.082Z,41.48
2019-06-26T12:41:59.487Z,43.74
2019-06-26T12:44:30.941Z,45.01
2019-06-26T12:47:00.464Z,46.87
2019-06-26T12:49:30.259Z,46.48
2019-06-26T12:52:02.304Z,46.07
2019-06-26T12:54:32.011Z,45.85
2019-06-26T12:57:01.356Z,45.42
2019-06-26T13:05:36.316Z,46.17
2019-06-26T13:08:05.827Z,51.56
2019-06-26T13:10:48.769Z,52.96
2019-06-26T13:13:06.382Z,54.49
2019-06-26T13:15:35.730Z,54.61
2019-06-26T13:18:05.227Z,57.29
2019-06-26T13:20:48.237Z,59.68
2019-06-26T13:23:06.149Z,57.60
2019-06-26T13:25:48.837Z,56.66
2019-06-26T13:28:18.302Z,57.58
2019-06-26T13:30:53.075Z,56.99
2019-06-26T13:34:00.111Z,54.04
2019-06-26T13:36:29.641Z,53.87
2019-06-26T13:38:59.030Z,52.06
2019-06-26T13:42:07.814Z,51.85
2019-06-26T13:44:37.639Z,53.93
2019-06-26T13:47:07.204Z,53.71
2019-06-26T13:49:55.699Z,55.30
2019-06-26T13:52:25.595Z,54.74
2019-06-26T13:54:57.198Z,53.41
2019-06-26T13:57:26.991Z,52.05
2019-06-26T14:06:00.657Z,55.46
2019-06-26T14:11:19.109Z,55.21
2019-06-26T14:13:48.843Z,55.76
2019-06-26T14:16:18.205Z,57.50
2019-06-26T14:18:47.627Z,58.47
2019-06-26T14:21:56.739Z,58.71
2019-06-26T14:27:32.817Z,60.00
2019-06-26T14:30:02.327Z,59.11
2019-06-26T14:32:31.727Z,59.58
2019-06-26T14:35:01.180Z,59.80
2019-06-26T14:37:41.693Z,59.14
2019-06-26T14:40:22.616Z,58.05
2019-06-26T14:42:52.068Z,57.64
2019-06-26T14:45:21.413Z,58.21
2019-06-26T14:47:50.855Z,57.79
2019-06-26T14:56:36.240Z,56.76
2019-06-26T14:59:06.043Z,58.78
2019-06-26T15:04:31.526Z,58.33
2019-06-26T15:07:01.074Z,58.06
2019-06-26T15:10:09.935Z,59.61
2019-06-26T15:15:54.925Z,59.74
2019-06-26T15:18:25.653Z,60.43
2019-06-26T15:20:55.124Z,60.71
2019-06-26T15:23:24.521Z,60.77
2019-06-26T15:25:54.071Z,62.20
2019-06-26T15:29:02.809Z,61.72
2019-06-26T15:34:47.418Z,64.33
2019-06-26T15:40:20.539Z,63.59
2019-06-26T15:42:50.002Z,63.01
2019-06-26T15:48:16.903Z,62.45
2019-06-26T15:51:07.155Z,62.68
2019-06-26T15:53:59.777Z,61.95
2019-06-26T15:56:28.091Z,62.02
2019-06-26T16:01:53.230Z,63.38
2019-06-26T16:04:22.642Z,63.84
2019-06-26T16:06:52.570Z,64.87
2019-06-26T16:09:41.500Z,64.59
2019-06-26T16:12:11.310Z,64.78
2019-06-26T16:14:40.757Z,62.88
2019-06-26T16:19:55.469Z,62.09
2019-06-26T16:22:32.381Z,61.89
2019-06-26T16:28:04.592Z,61.76
2019-06-26T16:36:32.401Z,61.51
2019-06-26T16:39:41.223Z,62.05
2019-06-26T16:42:10.716Z,62.46
2019-06-26T16:44:40.175Z,61.82
2019-06-26T16:47:09.850Z,61.66
2019-06-26T16:49:51.562Z,62.06
2019-06-26T16:55:16.850Z,61.94
2019-06-26T16:58:25.943Z,61.51
2019-06-26T17:00:55.707Z,61.40
2019-06-26T17:03:25.207Z,61.33
2019-06-26T17:05:54.691Z,61.36
2019-06-26T17:11:19.947Z,60.60
2019-06-26T17:13:50.236Z,61.12
2019-06-26T17:16:19.891Z,60.97
2019-06-26T17:18:49.312Z,61.26
2019-06-26T17:21:18.797Z,60.97
2019-06-26T17:23:48.314Z,61.24
2019-06-26T17:26:17.850Z,61.56
2019-06-26T17:28:49.412Z,61.05
2019-06-26T17:31:19.375Z,60.85
2019-06-26T17:33:49.108Z,60.55
2019-06-26T17:36:18.536Z,60.53
2019-06-26T17:39:27.282Z,60.50
2019-06-26T17:41:56.735Z,60.72
2019-06-26T17:44:26.132Z,60.19
2019-06-26T17:46:58.134Z,59.52
2019-06-26T17:49:28.029Z,58.32
2019-06-26T17:51:57.932Z,58.96
2019-06-26T17:54:27.444Z,57.60
2019-06-26T17:56:56.813Z,57.65
2019-06-26T17:59:26.740Z,56.24
2019-06-26T18:01:56.369Z,55.93
2019-06-26T18:04:25.727Z,55.35
2019-06-26T18:06:55.149Z,55.38
2019-06-26T18:09:24.689Z,54.84
2019-06-26T18:11:54.126Z,54.95
2019-06-26T18:14:24.004Z,55.45
2019-06-26T18:16:53.512Z,55.87
2019-06-26T18:19:23.668Z,54.47
2019-06-26T18:21:53.357Z,54.82
2019-06-26T18:24:22.722Z,54.84
2019-06-26T18:29:41.818Z,55.59
2019-06-26T18:32:11.342Z,53.63
2019-06-26T18:34:41.608Z,54.47
2019-06-26T18:37:11.124Z,54.55
2019-06-26T18:39:40.513Z,55.13
2019-06-26T18:42:10.395Z,55.68
2019-06-26T18:44:39.755Z,55.84
2019-06-26T18:50:11.469Z,56.19
2019-06-26T18:52:40.824Z,56.59
2019-06-26T18:55:22.080Z,56.46
2019-06-26T18:58:10.474Z,56.34
2019-06-26T19:00:39.860Z,55.08
2019-06-26T19:03:09.258Z,55.08
2019-06-26T19:08:34.610Z,56.06
2019-06-26T19:11:04.418Z,55.27
2019-06-26T19:13:33.869Z,51.39
2019-06-26T19:16:04.716Z,51.46
2019-06-26T19:18:36.334Z,51.45
2019-06-26T19:21:06.798Z,50.03
2019-06-26T19:23:37.484Z,47.51
2019-06-26T19:26:10.093Z,47.50
2019-06-26T19:28:40.147Z,43.30
2019-06-26T19:31:48.958Z,43.74
2019-06-26T19:35:07.910Z,40.03
2019-06-26T19:40:45.124Z,40.83
2019-06-26T19:43:14.691Z,39.24
2019-06-26T19:45:44.473Z,38.72
2019-06-26T19:48:53.462Z,39.43
2019-06-26T19:51:23.059Z,38.31
2019-06-26T19:53:52.901Z,39.56
2019-06-26T19:56:34.127Z,38.72
2019-06-26T20:02:05.770Z,39.94
2019-06-26T20:04:35.255Z,38.94
2019-06-26T20:07:44.960Z,39.76
2019-06-26T20:10:54.326Z,39.53
2019-06-26T20:16:38.489Z,39.99
2019-06-26T20:19:08.778Z,39.83
2019-06-26T20:21:39.206Z,38.78
2019-06-26T20:24:11.778Z,37.28
2019-06-26T20:26:41.499Z,38.43
2019-06-26T20:29:11.138Z,38.34
2019-06-26T20:31:40.597Z,37.92
2019-06-26T20:34:09.993Z,38.17
2019-06-26T20:36:39.439Z,37.97
2019-06-26T20:39:10.300Z,38.58
2019-06-26T20:41:40.158Z,38.58
2019-06-26T20:44:10.282Z,38.54
2019-06-26T20:46:59.304Z,39.75
2019-06-26T20:49:52.256Z,39.07
2019-06-26T20:52:09.317Z,39.59
2019-06-26T20:54:39.144Z,39.79
2019-06-26T20:57:28.251Z,39.89
2019-06-26T20:59:58.025Z,39.62
2019-06-26T21:02:27.959Z,39.63
2019-06-26T21:10:55.328Z,39.90
2019-06-26T21:16:33.364Z,40.25
2019-06-26T21:19:03.321Z,41.01
2019-06-26T21:21:34.464Z,41.03
2019-06-26T21:24:03.964Z,41.20
2019-06-26T21:26:33.770Z,41.50
2019-06-26T21:29:42.904Z,41.60
2019-06-26T21:32:12.756Z,41.66
2019-06-26T21:35:02.570Z,42.42
2019-06-26T21:37:32.772Z,42.77
2019-06-26T21:42:52.598Z,42.88
2019-06-26T21:46:01.409Z,43.35
2019-06-26T21:54:28.544Z,43.63
2019-06-26T21:56:59.724Z,44.10
2019-06-26T21:59:30.546Z,44.59
2019-06-26T22:02:00.764Z,44.69
2019-06-26T22:04:31.183Z,44.57
2019-06-26T22:09:56.942Z,45.07
2019-06-26T22:12:26.511Z,45.33
2019-06-26T22:15:35.332Z,45.64
2019-06-26T22:18:04.741Z,45.73
2019-06-26T22:20:34.737Z,46.34
2019-06-26T22:28:54.430Z,46.69
2019-06-26T22:31:23.830Z,47.17
2019-06-26T22:33:53.623Z,46.88
2019-06-26T22:36:24.846Z,47.22
2019-06-26T22:39:33.657Z,47.18
2019-06-26T22:42:42.421Z,47.32
2019-06-26T22:48:26.464Z,47.76
2019-06-26T22:50:56.491Z,47.94
2019-06-26T22:53:25.902Z,48.23
2019-06-26T22:56:14.784Z,48.07
2019-06-26T22:58:44.260Z,48.06
2019-06-26T23:01:14.493Z,48.23
2019-06-26T23:03:43.887Z,48.61
2019-06-26T23:06:13.750Z,49.03
2019-06-26T23:08:43.334Z,49.20
2019-06-26T23:14:09.410Z,49.79
2019-06-26T23:22:45.126Z,50.08
2019-06-26T23:25:15.837Z,50.31
2019-06-26T23:27:46.833Z,50.67
2019-06-26T23:30:58.415Z,50.50
2019-06-26T23:33:28.669Z,50.84
2019-06-26T23:35:58.666Z,50.92
2019-06-26T23:38:47.733Z,51.22
2019-06-26T23:41:18.300Z,51.15
2019-06-26T23:43:47.777Z,51.31
2019-06-26T23:49:13.839Z,51.60
2019-06-26T23:51:44.203Z,51.70
2019-06-26T23:54:14.153Z,51.61
2019-06-26T23:57:22.828Z,51.81
